Jennifer — WDF6480 — position and weather

sailwx.info

Track history (hours):
 
Tides and Currents Weather Stations Pressure Air Temp Water Temp Dewpoint Dewpoint Depression Visibility Wind Speed Wind Dir Waves Ship Positions

Jennifer

Owner: John W. Stone Oil Distributor, L.L.C., Gretna, LA. More information available from US FCC via Universal Licensing System and Coast Guard Vessel Documentation Center.

Last reported at 2016-Jun-30 08:34 UTC. Time now 2016-Jun-30 08:46 UTC.
Position N 29°55' W 089°59'.

Length 17 m; draft 3 m.

Type: Tug. MMSI: 367474690.

Date/timePositionNaut miles runAvg speedWind from/ knotsBaromVisibWave heightAir tempDewpointWater temp
2016-Jun-30 08:34N 29°55' W 089°59'2 2.4
2016-Jun-30 07:31N 29°55' W 089°56'0 0.0
2016-Jun-30 06:25N 29°55' W 089°56'0 0.0
2016-Jun-30 05:28N 29°55' W 089°56'0 0.0
2016-Jun-30 04:20N 29°55' W 089°56'0 0.0
2016-Jun-30 03:33N 29°55' W 089°56'6 6.1
2016-Jun-30 02:33N 29°57' W 090°02'0 0.0
2016-Jun-30 01:33N 29°57' W 090°02'0 0.3
2016-Jun-30 00:33N 29°57' W 090°03'1 0.9
2016-Jun-29 23:34N 29°57' W 090°03'5 4.6
2016-Jun-29 22:34N 29°55' W 089°58'4 1.0
2016-Jun-29 18:32N 29°54' W 089°54'6 5.8
2016-Jun-29 17:33N 29°57' W 090°00'0 0.0
2016-Jun-29 16:33N 29°57' W 090°00'0 0.0
2016-Jun-29 15:34N 29°57' W 090°00'0 0.0
2016-Jun-29 14:34N 29°57' W 090°00'0 0.0
2016-Jun-29 13:34N 29°57' W 090°00'1 1.5
2016-Jun-29 12:33N 29°57' W 090°02'2 2.4
2016-Jun-29 11:33N 29°55' W 090°04'0 0.0
2016-Jun-29 10:33N 29°55' W 090°04'0 0.0
2016-Jun-29 09:33N 29°55' W 090°04'0 0.0
2016-Jun-29 08:33N 29°55' W 090°04'0 0.0
2016-Jun-29 07:33N 29°55' W 090°04'0 0.0
2016-Jun-29 06:34N 29°55' W 090°04'0 0.0
2016-Jun-29 05:33N 29°55' W 090°04'0 0.0
2016-Jun-29 04:33N 29°55' W 090°04'0 0.1
2016-Jun-29 03:33N 29°56' W 090°04'1 1.2
2016-Jun-29 02:33N 29°55' W 090°05'0 0.0
2016-Jun-29 01:33N 29°55' W 090°05'0 0.1
2016-Jun-29 00:33N 29°55' W 090°05'0 0.0
2016-Jun-28 23:33N 29°55' W 090°05'1 1.1
2016-Jun-28 22:33N 29°55' W 090°04'0 0.0
2016-Jun-28 21:34N 29°55' W 090°04'0 0.0
2016-Jun-28 20:33N 29°55' W 090°04'2 2.3
2016-Jun-28 19:33N 29°55' W 090°06'4 3.8
2016-Jun-28 18:31N 29°58' W 090°09'0 0.3
2016-Jun-28 17:33N 29°57' W 090°09'4 4.2
2016-Jun-28 16:33N 29°55' W 090°05'4 4.0
2016-Jun-28 15:33N 29°57' W 090°00'0 0.0
2016-Jun-28 14:34N 29°56' W 090°00'0 0.0
2016-Jun-28 13:33N 29°56' W 090°00'0 0.1
2016-Jun-28 12:34N 29°56' W 090°00'3 3.0
2016-Jun-28 11:34N 29°55' W 090°04'0 0.0
2016-Jun-28 10:33N 29°55' W 090°04'0 0.0
2016-Jun-28 09:33N 29°55' W 090°04'0 0.0
2016-Jun-28 08:34N 29°55' W 090°04'0 0.0
2016-Jun-28 07:33N 29°55' W 090°04'0 0.0
2016-Jun-28 06:33N 29°55' W 090°04'0 0.0
2016-Jun-28 04:33N 29°55' W 090°04'0 0.0
2016-Jun-28 03:33N 29°55' W 090°04'0 0.0
2016-Jun-28 02:33N 29°55' W 090°04'1 0.9
2016-Jun-28 01:33N 29°56' W 090°03'2 2.3
2016-Jun-28 00:33N 29°57' W 090°01'0 0.0
2016-Jun-27 23:33N 29°57' W 090°01'0 0.1
2016-Jun-27 22:33N 29°57' W 090°01'1 0.7
2016-Jun-27 21:33N 29°56' W 089°60'0 0.0
2016-Jun-27 20:33N 29°56' W 089°60'0 0.2
2016-Jun-27 19:33N 29°56' W 090°00'1 0.9
2016-Jun-27 18:33N 29°57' W 090°01'0 0.0
2016-Jun-27 17:33N 29°57' W 090°01'1 1.1
2016-Jun-27 16:34N 29°57' W 090°02'2 1.6
2016-Jun-27 15:33N 29°57' W 090°04'0 0.0
2016-Jun-27 14:34N 29°57' W 090°04'0 0.1
2016-Jun-27 13:34N 29°57' W 090°04'1 1.3
2016-Jun-27 12:33N 29°55' W 090°04'0 0.0
2016-Jun-27 11:33N 29°55' W 090°04'0 0.0
2016-Jun-27 10:33N 29°55' W 090°04'0 0.1
2016-Jun-27 09:33N 29°56' W 090°04'0 0.0
2016-Jun-27 08:34N 29°56' W 090°04'0 0.0
2016-Jun-27 07:34N 29°56' W 090°04'0 0.0
2016-Jun-27 06:33N 29°56' W 090°04'0 0.0
2016-Jun-27 05:33N 29°56' W 090°04'0 0.0
2016-Jun-27 04:33N 29°56' W 090°04'0 0.0
2016-Jun-27 03:34N 29°56' W 090°04'0 0.0
2016-Jun-27 02:33N 29°56' W 090°04'0 0.0
2016-Jun-27 01:33N 29°56' W 090°04'0 0.0
2016-Jun-27 00:33N 29°56' W 090°04'0 0.0
2016-Jun-26 23:34N 29°56' W 090°04'0 0.0
2016-Jun-26 22:33N 29°56' W 090°04'0 0.0
2016-Jun-26 21:34N 29°56' W 090°04'0 0.0
2016-Jun-26 20:34N 29°56' W 090°04'0 0.0
2016-Jun-26 19:34N 29°56' W 090°04'0 0.0
2016-Jun-26 18:33N 29°56' W 090°04'0 0.0
2016-Jun-26 17:33N 29°56' W 090°04'1 0.6
2016-Jun-26 16:33N 29°56' W 090°03'4 3.7
2016-Jun-26 15:33N 29°56' W 089°59'5 3.8
2016-Jun-26 14:19N 29°52' W 089°56'3 4.3
2016-Jun-26 13:31N 29°50' W 089°59'5 0.3
2016-Jun-25 16:18N 29°46' W 090°02'7 8.9
2016-Jun-25 15:33N 29°52' W 089°59'4 4.2
2016-Jun-25 14:33N 29°55' W 089°56'0 0.2
2016-Jun-25 13:31N 29°55' W 089°56'2 0.2
2016-Jun-25 05:25N 29°54' W 089°55'7 8.0
2016-Jun-25 04:33N 29°57' W 090°02'3 2.6
2016-Jun-25 03:33N 29°55' W 090°04'0 0.0
2016-Jun-25 02:33N 29°55' W 090°04'0 0.0
2016-Jun-25 01:34N 29°55' W 090°04'0 0.2
2016-Jun-25 00:34N 29°56' W 090°04'0 0.2
2016-Jun-24 23:34N 29°55' W 090°04'0 0.0
2016-Jun-24 22:33N 29°55' W 090°04'0 0.0
2016-Jun-24 21:33N 29°55' W 090°04'0 0.0
2016-Jun-24 20:33N 29°55' W 090°04'0 0.0
2016-Jun-24 19:33N 29°55' W 090°04'0 0.0
2016-Jun-24 18:34N 29°55' W 090°04'0 0.0
2016-Jun-24 17:33N 29°55' W 090°04'0 0.0
2016-Jun-24 16:33N 29°55' W 090°04'0 0.0
2016-Jun-24 15:33N 29°55' W 090°04'1 0.6
2016-Jun-24 14:33N 29°56' W 090°03'0 0.0
2016-Jun-24 13:33N 29°56' W 090°03'0 0.0
2016-Jun-24 12:33N 29°56' W 090°03'0 0.0
2016-Jun-24 11:33N 29°56' W 090°03'0 0.0
2016-Jun-24 10:33N 29°56' W 090°03'0 0.0
2016-Jun-24 09:33N 29°56' W 090°03'0 0.0
2016-Jun-24 08:33N 29°56' W 090°03'0 0.0
2016-Jun-24 07:33N 29°56' W 090°03'0 0.0
2016-Jun-24 04:33N 29°56' W 090°03'0 0.0
2016-Jun-24 03:33N 29°56' W 090°03'0 0.3
2016-Jun-24 02:33N 29°56' W 090°03'0 0.0
2016-Jun-24 01:33N 29°56' W 090°03'0 0.0
2016-Jun-24 00:33N 29°56' W 090°03'0 0.0
2016-Jun-23 23:33N 29°56' W 090°03'0 0.0
2016-Jun-23 22:33N 29°56' W 090°03'0 0.0
2016-Jun-23 21:33N 29°56' W 090°03'0 0.0
2016-Jun-23 20:08N 29°56' W 090°03'0 0.0
2016-Jun-23 19:33N 29°56' W 090°03'0 0.0
2016-Jun-23 17:33N 29°56' W 090°03'0 0.0
2016-Jun-23 16:33N 29°56' W 090°03'0 0.3
2016-Jun-23 15:33N 29°55' W 090°04'0 0.0
2016-Jun-23 14:33N 29°55' W 090°04'0 0.1
2016-Jun-23 13:33N 29°55' W 090°04'2 2.3
2016-Jun-23 12:33N 29°57' W 090°02'2 2.5
2016-Jun-23 11:33N 29°56' W 089°60'0 0.3
2016-Jun-23 10:33N 29°56' W 089°60'0 0.0
2016-Jun-23 09:33N 29°56' W 089°60'0 0.0
2016-Jun-23 08:33N 29°56' W 089°60'1 1.2
2016-Jun-23 07:33N 29°55' W 089°58'4 2.1
2016-Jun-23 05:33N 29°51' W 089°59'3 2.7
2016-Jun-23 04:17N 29°48' W 090°01'  
2016-Jun-20 20:15N 29°52' W 089°56'0 0.0
2016-Jun-20 19:33N 29°52' W 089°56'2 1.9
2016-Jun-20 18:33N 29°52' W 089°54'8 7.6
2016-Jun-20 17:33N 29°57' W 090°01'2 2.0
2016-Jun-20 16:33N 29°57' W 090°03'3 3.1
2016-Jun-20 15:33N 29°55' W 090°06'2 2.3
2016-Jun-20 14:34N 29°55' W 090°09'4 3.9
2016-Jun-20 13:33N 29°55' W 090°04'0 0.4
2016-Jun-20 12:33N 29°55' W 090°04'0 0.0
2016-Jun-20 11:33N 29°55' W 090°04'0 0.0
2016-Jun-20 10:33N 29°55' W 090°04'0 0.1
2016-Jun-20 09:33N 29°56' W 090°04'  
Track history (hours):
 
Tides and Currents Weather Stations Pressure Air Temp Water Temp Dewpoint Dewpoint Depression Visibility Wind Speed Wind Dir Waves Ship Positions

Jennifer

Owner: John W. Stone Oil Distributor, L.L.C., Gretna, LA. More information available from US FCC via Universal Licensing System and Coast Guard Vessel Documentation Center.

Last reported at 2016-Jun-30 08:34 UTC. Time now 2016-Jun-30 08:46 UTC.
Position N 29°55' W 089°59'.

Length 17 m; draft 3 m.

Type: Tug. MMSI: 367474690.

Date/timePositionNaut miles runAvg speedWind from/ knotsBaromVisibWave heightAir tempDewpointWater temp
2016-Jun-30 08:34N 29°55' W 089°59'2 2.4
2016-Jun-30 07:31N 29°55' W 089°56'0 0.0
2016-Jun-30 06:25N 29°55' W 089°56'0 0.0
2016-Jun-30 05:28N 29°55' W 089°56'0 0.0
2016-Jun-30 04:20N 29°55' W 089°56'0 0.0
2016-Jun-30 03:33N 29°55' W 089°56'6 6.1
2016-Jun-30 02:33N 29°57' W 090°02'0 0.0
2016-Jun-30 01:33N 29°57' W 090°02'0 0.3
2016-Jun-30 00:33N 29°57' W 090°03'1 0.9
2016-Jun-29 23:34N 29°57' W 090°03'5 4.6
2016-Jun-29 22:34N 29°55' W 089°58'4 1.0
2016-Jun-29 18:32N 29°54' W 089°54'6 5.8
2016-Jun-29 17:33N 29°57' W 090°00'0 0.0
2016-Jun-29 16:33N 29°57' W 090°00'0 0.0
2016-Jun-29 15:34N 29°57' W 090°00'0 0.0
2016-Jun-29 14:34N 29°57' W 090°00'0 0.0
2016-Jun-29 13:34N 29°57' W 090°00'1 1.5
2016-Jun-29 12:33N 29°57' W 090°02'2 2.4
2016-Jun-29 11:33N 29°55' W 090°04'0 0.0
2016-Jun-29 10:33N 29°55' W 090°04'0 0.0
2016-Jun-29 09:33N 29°55' W 090°04'0 0.0
2016-Jun-29 08:33N 29°55' W 090°04'0 0.0
2016-Jun-29 07:33N 29°55' W 090°04'0 0.0
2016-Jun-29 06:34N 29°55' W 090°04'0 0.0
2016-Jun-29 05:33N 29°55' W 090°04'0 0.0
2016-Jun-29 04:33N 29°55' W 090°04'0 0.1
2016-Jun-29 03:33N 29°56' W 090°04'1 1.2
2016-Jun-29 02:33N 29°55' W 090°05'0 0.0
2016-Jun-29 01:33N 29°55' W 090°05'0 0.1
2016-Jun-29 00:33N 29°55' W 090°05'0 0.0
2016-Jun-28 23:33N 29°55' W 090°05'1 1.1
2016-Jun-28 22:33N 29°55' W 090°04'0 0.0
2016-Jun-28 21:34N 29°55' W 090°04'0 0.0
2016-Jun-28 20:33N 29°55' W 090°04'2 2.3
2016-Jun-28 19:33N 29°55' W 090°06'4 3.8
2016-Jun-28 18:31N 29°58' W 090°09'0 0.3
2016-Jun-28 17:33N 29°57' W 090°09'4 4.2
2016-Jun-28 16:33N 29°55' W 090°05'4 4.0
2016-Jun-28 15:33N 29°57' W 090°00'0 0.0
2016-Jun-28 14:34N 29°56' W 090°00'0 0.0
2016-Jun-28 13:33N 29°56' W 090°00'0 0.1
2016-Jun-28 12:34N 29°56' W 090°00'3 3.0
2016-Jun-28 11:34N 29°55' W 090°04'0 0.0
2016-Jun-28 10:33N 29°55' W 090°04'0 0.0
2016-Jun-28 09:33N 29°55' W 090°04'0 0.0
2016-Jun-28 08:34N 29°55' W 090°04'0 0.0
2016-Jun-28 07:33N 29°55' W 090°04'0 0.0
2016-Jun-28 06:33N 29°55' W 090°04'0 0.0
2016-Jun-28 04:33N 29°55' W 090°04'0 0.0
2016-Jun-28 03:33N 29°55' W 090°04'0 0.0
2016-Jun-28 02:33N 29°55' W 090°04'1 0.9
2016-Jun-28 01:33N 29°56' W 090°03'2 2.3
2016-Jun-28 00:33N 29°57' W 090°01'0 0.0
2016-Jun-27 23:33N 29°57' W 090°01'0 0.1
2016-Jun-27 22:33N 29°57' W 090°01'1 0.7
2016-Jun-27 21:33N 29°56' W 089°60'0 0.0
2016-Jun-27 20:33N 29°56' W 089°60'0 0.2
2016-Jun-27 19:33N 29°56' W 090°00'1 0.9
2016-Jun-27 18:33N 29°57' W 090°01'0 0.0
2016-Jun-27 17:33N 29°57' W 090°01'1 1.1
2016-Jun-27 16:34N 29°57' W 090°02'2 1.6
2016-Jun-27 15:33N 29°57' W 090°04'0 0.0
2016-Jun-27 14:34N 29°57' W 090°04'0 0.1
2016-Jun-27 13:34N 29°57' W 090°04'1 1.3
2016-Jun-27 12:33N 29°55' W 090°04'0 0.0
2016-Jun-27 11:33N 29°55' W 090°04'0 0.0
2016-Jun-27 10:33N 29°55' W 090°04'0 0.1
2016-Jun-27 09:33N 29°56' W 090°04'0 0.0
2016-Jun-27 08:34N 29°56' W 090°04'0 0.0
2016-Jun-27 07:34N 29°56' W 090°04'0 0.0
2016-Jun-27 06:33N 29°56' W 090°04'0 0.0
2016-Jun-27 05:33N 29°56' W 090°04'0 0.0
2016-Jun-27 04:33N 29°56' W 090°04'0 0.0
2016-Jun-27 03:34N 29°56' W 090°04'0 0.0
2016-Jun-27 02:33N 29°56' W 090°04'0 0.0
2016-Jun-27 01:33N 29°56' W 090°04'0 0.0
2016-Jun-27 00:33N 29°56' W 090°04'0 0.0
2016-Jun-26 23:34N 29°56' W 090°04'0 0.0
2016-Jun-26 22:33N 29°56' W 090°04'0 0.0
2016-Jun-26 21:34N 29°56' W 090°04'0 0.0
2016-Jun-26 20:34N 29°56' W 090°04'0 0.0
2016-Jun-26 19:34N 29°56' W 090°04'0 0.0
2016-Jun-26 18:33N 29°56' W 090°04'0 0.0
2016-Jun-26 17:33N 29°56' W 090°04'1 0.6
2016-Jun-26 16:33N 29°56' W 090°03'4 3.7
2016-Jun-26 15:33N 29°56' W 089°59'5 3.8
2016-Jun-26 14:19N 29°52' W 089°56'3 4.3
2016-Jun-26 13:31N 29°50' W 089°59'5 0.3
2016-Jun-25 16:18N 29°46' W 090°02'7 8.9
2016-Jun-25 15:33N 29°52' W 089°59'4 4.2
2016-Jun-25 14:33N 29°55' W 089°56'0 0.2
2016-Jun-25 13:31N 29°55' W 089°56'2 0.2
2016-Jun-25 05:25N 29°54' W 089°55'7 8.0
2016-Jun-25 04:33N 29°57' W 090°02'3 2.6
2016-Jun-25 03:33N 29°55' W 090°04'0 0.0
2016-Jun-25 02:33N 29°55' W 090°04'0 0.0
2016-Jun-25 01:34N 29°55' W 090°04'0 0.2
2016-Jun-25 00:34N 29°56' W 090°04'0 0.2
2016-Jun-24 23:34N 29°55' W 090°04'0 0.0
2016-Jun-24 22:33N 29°55' W 090°04'0 0.0
2016-Jun-24 21:33N 29°55' W 090°04'0 0.0
2016-Jun-24 20:33N 29°55' W 090°04'0 0.0
2016-Jun-24 19:33N 29°55' W 090°04'0 0.0
2016-Jun-24 18:34N 29°55' W 090°04'0 0.0
2016-Jun-24 17:33N 29°55' W 090°04'0 0.0
2016-Jun-24 16:33N 29°55' W 090°04'0 0.0
2016-Jun-24 15:33N 29°55' W 090°04'1 0.6
2016-Jun-24 14:33N 29°56' W 090°03'0 0.0
2016-Jun-24 13:33N 29°56' W 090°03'0 0.0
2016-Jun-24 12:33N 29°56' W 090°03'0 0.0
2016-Jun-24 11:33N 29°56' W 090°03'0 0.0
2016-Jun-24 10:33N 29°56' W 090°03'0 0.0
2016-Jun-24 09:33N 29°56' W 090°03'0 0.0
2016-Jun-24 08:33N 29°56' W 090°03'0 0.0
2016-Jun-24 07:33N 29°56' W 090°03'0 0.0
2016-Jun-24 04:33N 29°56' W 090°03'0 0.0
2016-Jun-24 03:33N 29°56' W 090°03'0 0.3
2016-Jun-24 02:33N 29°56' W 090°03'0 0.0
2016-Jun-24 01:33N 29°56' W 090°03'0 0.0
2016-Jun-24 00:33N 29°56' W 090°03'0 0.0
2016-Jun-23 23:33N 29°56' W 090°03'0 0.0
2016-Jun-23 22:33N 29°56' W 090°03'0 0.0
2016-Jun-23 21:33N 29°56' W 090°03'0 0.0
2016-Jun-23 20:08N 29°56' W 090°03'0 0.0
2016-Jun-23 19:33N 29°56' W 090°03'0 0.0
2016-Jun-23 17:33N 29°56' W 090°03'0 0.0
2016-Jun-23 16:33N 29°56' W 090°03'0 0.3
2016-Jun-23 15:33N 29°55' W 090°04'0 0.0
2016-Jun-23 14:33N 29°55' W 090°04'0 0.1
2016-Jun-23 13:33N 29°55' W 090°04'2 2.3
2016-Jun-23 12:33N 29°57' W 090°02'2 2.5
2016-Jun-23 11:33N 29°56' W 089°60'0 0.3
2016-Jun-23 10:33N 29°56' W 089°60'0 0.0
2016-Jun-23 09:33N 29°56' W 089°60'0 0.0
2016-Jun-23 08:33N 29°56' W 089°60'1 1.2
2016-Jun-23 07:33N 29°55' W 089°58'4 2.1
2016-Jun-23 05:33N 29°51' W 089°59'3 2.7
2016-Jun-23 04:17N 29°48' W 090°01'  
2016-Jun-20 20:15N 29°52' W 089°56'0 0.0
2016-Jun-20 19:33N 29°52' W 089°56'2 1.9
2016-Jun-20 18:33N 29°52' W 089°54'8 7.6
2016-Jun-20 17:33N 29°57' W 090°01'2 2.0
2016-Jun-20 16:33N 29°57' W 090°03'3 3.1
2016-Jun-20 15:33N 29°55' W 090°06'2 2.3
2016-Jun-20 14:34N 29°55' W 090°09'4 3.9
2016-Jun-20 13:33N 29°55' W 090°04'0 0.4
2016-Jun-20 12:33N 29°55' W 090°04'0 0.0
2016-Jun-20 11:33N 29°55' W 090°04'0 0.0
2016-Jun-20 10:33N 29°55' W 090°04'0 0.1
2016-Jun-20 09:33N 29°56' W 090°04'  

Dump ship's entire track history